Share

Eagle, AK

Eagle (PAEG) Elev 879 ft | 64.78 °N, 141.15 °W | Change Station

Current weather conditions updated 35 minutes ago

Clear
Clear
40 °F
Feels Like 40 °F
N
0
Wind Variable Wind from North
Sunrise 5:31 AM
Sunset 9:17 PM
Moon Waning Gibbous

Today is forecast to be Cooler than yesterday.

Pressure 29.82 in
Visibility 10.0 miles
Clouds Clear
Dew Point 24 °F
Humidity 53%
Rainfall 0.00 in
Snow Depth Not available.
UV 2 out of 16
Pollen Not available.
Air Quality Not available.
Flu Activity Sporadic
METAR PAEG 201753Z AUTO 00000KT 10SM CLR 04/M04 A2979 RMK AO2 SLP098 I6000 T00441044 10050 21067 51005 TSNO

More Conditions Fewer Conditions

Pressure 29.82 in
Visibility 10.0 miles
Clouds Clear
Dew Point 24 °F
Humidity 53%
Rainfall 0.00 in
Snow Depth Not available.
UV 2 out of 16
Pollen Not available.
Air Quality Not available.
Flu Activity Sporadic
METAR PAEG 201753Z AUTO 00000KT 10SM CLR 04/M04 A2979 RMK AO2 SLP098 I6000 T00441044 10050 21067 51005 TSNO

More Conditions Fewer Conditions

10-Day Weather Forecast

Almanac

Astronomy

Apr. 20, 2014 Rise Set
Actual Time 5:31 AM AKDT 9:17 PM AKDT
Civil Twilight 4:30 AM AKDT 10:19 PM AKDT
Nautical Twilight 2:48 AM AKDT 12:06 AM AKDT
Astronomical Twilight Sun does not rise Sun does not rise
Moon 2:55 AM AKDT 9:11 AM AKDT
Length of Visible Light 17h 49m
Length of Day
15h 46m
Tomorrow will be 6m 53s longer.
Waning Gibbous, 67% of the Moon is Illuminated
Today
Waning Gibbous
Apr 22
Last Quarter
Apr 29
New
May 6
First Quarter
May 14
Full

Today's Extremes

State Highs State Lows

Community

  • Columbine
    Columbine
  • Easter Sunrise
    Easter Sunrise
  • Easter Eve - The Promise - Lake Palestine, TX
    Easter Eve - The Promise - Lake Palestine, TX
  • Happy Easter
    Happy Easter
  • EARLY FOGGY MORNING
    EARLY FOGGY MORNING

WunderPhotos

Upload Photos

1,703,299 photos uploaded!

WunderBlogs® & News

Nearby

Snow Depth

Station Depth Elevation
Upper Chena 35 in 2850 ft
Teuchet Creek 9 in 1640 ft
Eagle Summit 11 in 3650 ft
Granite Creek 6 in 1240 ft
Monument Creek 14 in 1850 ft

Coastal Water Temperatures

Place Temperature
No Stations Reporting

Earthquake Activity

City Distance Mag. Time & Date
No recent earthquake activity has been reported nearby.
Minimum magnitude displayed is 2.5.

Nearby Weather Stations

Station Location Temp. Windchill Dew Point Humidity Wind Precip. Elev Updated Type
RAWS EAGLE AK, Eagle, AK 41 °F 41 °F 26 °F 55% NNW  at  1 mph 0.00 in / hr 879 ft 9:20 AM AKDT MADIS

Show More Stations Show Fewer Stations

What do you think?

We're not finished. Please let us know what you like, what you don't like, and what you are still missing.